KNPA

Airport

Pensacola, Florida, USA
METAR KNPA 190456Z AUTO 00000KT 10SM CLR 24/24 A2993 RMK AO2 SLP136 T02440239
Observed Flight Rules
Sep-19 @ 04:56 UTC (4 hours ago) Visual Flight Rules
Visibility Clouds
10 miles
  • Clear skies
Temperatures Readings
Current 24°C / 75°F
Dewpoint 24°C / 75°F
Humidity 100%
Altimeter 29.93" Hg
Pressure 1013.6 hPa
Elevation 9
METAR KNPA 190456Z AUTO 00000KT 10SM CLR 24/24 A2993 RMK AO2 SLP136 T02440239
Observed Flight Rules
Sep-19 @ 04:56 UTC
(4 hours ago)
VFR
Clouds
  • Clear skies
Temperature Dewpoint
24°C / 75°F 24°C / 75°F
Humidity Altimeter Pressure
100% 29.93" Hg 1013.6 hPa